Flag Island, MN

9:52 PM CST on December 14, 2017 (GMT -0600)
Flag Island

Weather History for KFGN - January, 2013

Change the Weather History Date:

Wednesday, January 16, 2013

  Actual Average Record
Temperature  
Mean Temperature 2 °F -  
Max Temperature 21 °F 8 °F 33 °F (2014)
Min Temperature -16 °F -3 °F -31 °F (2005)
Degree Days  
Heating Degree Days 62    
Moisture  
Dew Point -5 °F    
Average Humidity 76    
Maximum Humidity 93    
Minimum Humidity 60    
Precipitation  
Precipitation 0.00 in - - ()
Sea Level Pressure  
Sea Level Pressure 29.87 in    
Wind  
Wind Speed 15 mph (NW)    
Max Wind Speed 24 mph    
Max Gust Speed 29 mph    
Visibility 9 miles    
Events Snow    
Averages and records for this station are not official NWS values.
T = Trace of Precipitation, MM = Missing Value Source: NWS Daily Summary

Daily Weather History Graph

Daily Weather History Graph

Search for Another Location

Airport or City:

Trip Planner

Search our weather history database for the weather conditions in past years. The results will help you decide how hot, cold, wet, or windy it might be!

Date:

Astronomy

Jan. 16, 2013 Rise Set
Actual Time 8:08 AM CST 4:50 PM CST
Civil Twilight 7:32 AM CST 5:27 PM CST
Nautical Twilight 6:52 AM CST 6:06 PM CST
Astronomical Twilight 6:14 AM CST 6:44 PM CST
Moon 10:11 AM CST (1/16) 11:21 PM CST (1/16)
Length of Visible Light 9h 54m
Length of Day
8h 42m
Waxing Crescent, 28% of the Moon is Illuminated
Jan 16
Waxing Crescent
Jan 18
First Quarter
Jan 26
Full
Feb 3
Last Quarter
Feb 10
New

Hourly Weather History & Observations

Time (CST) Temp. Windchill Dew Point Humidity Pressure Visibility Wind Dir Wind Speed Gust Speed Precip Events Conditions
12:13 AM 19.4 °F 7.2 °F 17.6 °F 93% 29.39 in 5.0 mi SW 11.5 mph - N/A   Overcast
12:33 AM 19.4 °F 9.5 °F 17.6 °F 93% 29.39 in 7.0 mi WSW 8.1 mph - N/A   Overcast
12:54 AM 19.4 °F 10.4 °F 17.6 °F 93% 29.40 in 7.0 mi West 6.9 mph - N/A   Overcast
1:13 AM 21.2 °F 12.6 °F 19.4 °F 93% 29.40 in 10.0 mi West 6.9 mph - N/A   Overcast
1:33 AM 21.2 °F 9.5 °F 19.4 °F 93% 29.41 in 10.0 mi WNW 11.5 mph - N/A   Overcast
1:54 AM 21.2 °F 8.3 °F 19.4 °F 93% 29.43 in 10.0 mi NW 13.8 mph - N/A   Overcast
2:13 AM 21.2 °F 6.4 °F 19.4 °F 93% 29.45 in 10.0 mi NW 18.4 mph - N/A   Overcast
2:33 AM 21.2 °F 5.6 °F 17.6 °F 86% 29.47 in 10.0 mi NW 20.7 mph - N/A   Overcast
2:54 AM 19.4 °F 2.1 °F 15.8 °F 86% 29.49 in 5.0 mi NW 24.2 mph - N/A   Overcast
3:13 AM 17.6 °F 0.1 °F 15.8 °F 93% 29.50 in 7.0 mi NW 23.0 mph - N/A   Overcast
3:33 AM 17.6 °F 0.5 °F 14.0 °F 86% 29.51 in 7.0 mi NW 21.9 mph - N/A   Overcast
3:54 AM 15.8 °F -1.9 °F 12.2 °F 86% 29.53 in 7.0 mi WNW 21.9 mph 26.5 mph N/A   Overcast
4:13 AM 15.8 °F -1.5 °F 10.4 °F 79% 29.55 in 3.0 mi NW 20.7 mph 28.8 mph N/A Snow Light Snow
4:33 AM 14.0 °F -3.9 °F 10.4 °F 86% 29.56 in 3.0 mi NW 20.7 mph - N/A Snow Light Snow
4:54 AM 12.2 °F -5.8 °F 10.4 °F 92% 29.57 in 3.0 mi NW 19.6 mph 26.5 mph N/A Snow Light Snow
5:33 AM 12.2 °F -5.8 °F 8.6 °F 85% 29.59 in 3.0 mi NW 19.6 mph - N/A Snow Light Snow
5:54 AM 10.4 °F -7.2 °F 6.8 °F 85% 29.61 in 5.0 mi NW 17.3 mph - N/A Snow Light Snow
6:34 AM 8.6 °F -9.5 °F 5.0 °F 85% 29.64 in 7.0 mi NW 17.3 mph 24.2 mph N/A   Overcast
6:53 AM 8.6 °F -11.4 °F 3.2 °F 79% 29.65 in 7.0 mi NW 21.9 mph - N/A   Overcast
7:13 AM 6.8 °F -11.8 °F 3.2 °F 85% 29.65 in 10.0 mi NW 17.3 mph - N/A   Overcast
7:34 AM 6.8 °F -12.4 °F 3.2 °F 85% 29.68 in 10.0 mi NW 18.4 mph - N/A   Overcast
7:53 AM 6.8 °F -11.3 °F 3.2 °F 85% 29.69 in 10.0 mi NW 16.1 mph - N/A   Overcast
8:13 AM 6.8 °F -11.3 °F 3.2 °F 85% 29.71 in 10.0 mi NW 16.1 mph - N/A   Overcast
8:34 AM 6.8 °F -9.3 °F 1.4 °F 79% 29.73 in 10.0 mi NW 12.7 mph 17.3 mph N/A   Overcast
8:53 AM 6.8 °F -11.8 °F 1.4 °F 79% 29.75 in 10.0 mi NNW 17.3 mph - N/A   Overcast
9:13 AM 5.0 °F -14.7 °F 1.4 °F 85% 29.76 in 10.0 mi NW 18.4 mph - N/A   Overcast
9:34 AM 3.2 °F -18.6 °F -0.4 °F 85% 29.80 in 3.0 mi NW 21.9 mph - N/A   Overcast
9:53 AM 3.2 °F -18.6 °F -0.4 °F 85% 29.82 in 7.0 mi NNW 21.9 mph - N/A   Mostly Cloudy
10:13 AM 3.2 °F -17.6 °F -2.2 °F 78% 29.83 in 10.0 mi NNW 19.6 mph - N/A   Scattered Clouds
10:34 AM 1.4 °F -19.4 °F -2.2 °F 85% 29.84 in 10.0 mi NNW 18.4 mph - N/A   Scattered Clouds
10:53 AM 1.4 °F -18.2 °F -2.2 °F 85% 29.85 in 10.0 mi NNW 16.1 mph - N/A   Scattered Clouds
11:13 AM 1.4 °F -19.9 °F -4.0 °F 78% 29.86 in 10.0 mi NNW 19.6 mph - N/A   Clear
11:34 AM 1.4 °F -18.2 °F -5.8 °F 72% 29.87 in 10.0 mi NW 16.1 mph - N/A   Mostly Cloudy
11:53 AM 1.4 °F -19.9 °F -5.8 °F 72% 29.89 in 10.0 mi NW 19.6 mph - N/A   Overcast
12:13 PM 1.4 °F -18.8 °F -7.6 °F 66% 29.90 in 10.0 mi NNW 17.3 mph - N/A   Overcast
12:53 PM 1.4 °F -21.0 °F -9.4 °F 61% 29.93 in 10.0 mi NW 21.9 mph - N/A   Scattered Clouds
1:14 PM -0.4 °F -22.8 °F -11.2 °F 60% 29.94 in 10.0 mi NNW 20.7 mph - N/A   Mostly Cloudy
1:33 PM -0.4 °F -22.3 °F -11.2 °F 60% 29.95 in 10.0 mi NNW 19.6 mph - N/A   Scattered Clouds
1:53 PM -0.4 °F -19.9 °F -7.6 °F 72% 29.96 in 7.0 mi NNW 15.0 mph - N/A   Scattered Clouds
2:14 PM -0.4 °F -19.9 °F -7.6 °F 72% 29.98 in 3.0 mi NNW 15.0 mph - N/A   Haze
2:33 PM -2.2 °F -23.5 °F -9.4 °F 71% 29.99 in 10.0 mi NNW 17.3 mph - N/A   Scattered Clouds
2:53 PM -0.4 °F -20.5 °F -11.2 °F 60% 30.01 in 10.0 mi NNW 16.1 mph - N/A   Clear
3:14 PM -2.2 °F -22.9 °F -11.2 °F 66% 30.02 in 10.0 mi NNW 16.1 mph - N/A   Clear
3:33 PM -2.2 °F -22.2 °F -11.2 °F 66% 30.03 in 10.0 mi NW 15.0 mph - N/A   Clear
3:53 PM -2.2 °F -20.7 °F -11.2 °F 66% 30.04 in 10.0 mi NW 12.7 mph - N/A   Clear
4:14 PM -2.2 °F -24.1 °F -11.2 °F 66% 30.07 in 10.0 mi NW 18.4 mph - N/A   Clear
4:33 PM -4.0 °F -25.8 °F -13.0 °F 65% 30.08 in 10.0 mi NW 17.3 mph - N/A   Clear
4:53 PM -5.8 °F -26.8 °F -11.2 °F 77% 30.10 in 10.0 mi NW 15.0 mph - N/A   Clear
5:14 PM -5.8 °F -27.5 °F -14.8 °F 65% 30.11 in 10.0 mi NW 16.1 mph 21.9 mph N/A   Clear
5:33 PM -7.6 °F -29.1 °F -14.8 °F 71% 30.12 in 10.0 mi NW 15.0 mph - N/A   Clear
5:54 PM -9.4 °F -30.6 °F -16.6 °F 71% 30.12 in 10.0 mi WNW 13.8 mph 21.9 mph N/A   Clear
6:13 PM -9.4 °F -30.6 °F -18.4 °F 65% 30.13 in 10.0 mi NW 13.8 mph - N/A   Clear
6:33 PM -11.2 °F -33.7 °F -18.4 °F 70% 30.14 in 10.0 mi WNW 15.0 mph - N/A   Clear
6:54 PM -11.2 °F -32.9 °F -20.2 °F 64% 30.15 in 10.0 mi NW 13.8 mph - N/A   Clear
7:13 PM -13.0 °F -34.3 °F -20.2 °F 70% 30.16 in 10.0 mi NW 12.7 mph - N/A   Clear
7:33 PM -13.0 °F -35.2 °F -20.2 °F 70% 30.17 in 10.0 mi NW 13.8 mph - N/A   Clear
7:54 PM -13.0 °F -36.8 °F -22.0 °F 64% 30.19 in 10.0 mi NW 16.1 mph - N/A   Clear
8:13 PM -14.8 °F -38.3 °F -23.8 °F 64% 30.17 in 10.0 mi NNW 15.0 mph - N/A   Clear
8:33 PM -14.8 °F -36.6 °F -22.0 °F 70% 30.19 in 10.0 mi NW 12.7 mph - N/A   Mostly Cloudy
8:53 PM -14.8 °F -38.3 °F -23.8 °F 64% 30.19 in 10.0 mi NW 15.0 mph - N/A   Overcast
9:13 PM -14.8 °F -37.5 °F -23.8 °F 64% 30.19 in 10.0 mi NNW 13.8 mph - N/A   Mostly Cloudy
9:34 PM -14.8 °F -32.2 °F -23.8 °F 64% 30.20 in 10.0 mi NW 8.1 mph - N/A   Overcast
9:53 PM -14.8 °F -34.6 °F -23.8 °F 64% 30.20 in 10.0 mi NNW 10.4 mph - N/A   Overcast
10:13 PM -14.8 °F -29.1 °F -23.8 °F 64% 30.21 in 10.0 mi NW 5.8 mph - N/A   Overcast
10:34 PM -14.8 °F -29.1 °F -23.8 °F 64% 30.21 in 10.0 mi West 5.8 mph - N/A   Mostly Cloudy
10:53 PM -16.6 °F -29.3 °F -23.8 °F 70% 30.22 in 10.0 mi West 4.6 mph - N/A   Mostly Cloudy
11:13 PM -16.6 °F - -23.8 °F 70% 30.21 in 10.0 mi Calm Calm - N/A   Clear
11:34 PM -16.6 °F - -23.8 °F 70% 30.20 in 10.0 mi Calm Calm - N/A   Clear
11:53 PM -16.6 °F -26.8 °F -23.8 °F 70% 30.21 in 10.0 mi SSW 3.5 mph - N/A   Mostly Cloudy